This is the latest recevied weather packets stored in our database for station/object K9ZOG. If no packets are shown the sender has not sent any weather packets the latest 1 day(s).
| Time | Temp. | Humidity | Pressure | Rain* | Wind** | Luminosity | Snow |
|---|---|---|---|---|---|---|---|
| 1778018052 | 11.11° C | 42% | 1008.7 hPa | 0 mm | 0.45 m/s, 178° | 141 W/m² | - |
| 1778017754 | 11.11° C | 43% | 1008.7 hPa | 0 mm | 0.89 m/s, 188° | 143 W/m² | - |
| 1778017452 | 11.11° C | 44% | 1008.8 hPa | 0 mm | 0.45 m/s, 183° | 155 W/m² | - |
| 1778017155 | 11.11° C | 42% | 1008.8 hPa | 0 mm | 0.45 m/s, 268° | 163 W/m² | - |
| 1778016853 | 11.11° C | 42% | 1008.9 hPa | 0 mm | 1.34 m/s, 192° | 166 W/m² | - |
| 1778016554 | 11.11° C | 42% | 1009 hPa | 0 mm | 0 m/s | 166 W/m² | - |
| 1778016252 | 11.11° C | 42% | 1008.9 hPa | 0 mm | 0.45 m/s, 216° | 191 W/m² | - |
| 1778015954 | 11.11° C | 43% | 1008.9 hPa | 0 mm | 0 m/s | 189 W/m² | - |
| 1778015653 | 11.11° C | 43% | 1008.9 hPa | 0 mm | 0.45 m/s, 184° | 189 W/m² | - |
| 1778015357 | 11.11° C | 42% | 1008.9 hPa | 0 mm | 0.89 m/s, 211° | 193 W/m² | - |
| 1778015053 | 11.11° C | 41% | 1008.9 hPa | 0 mm | 1.79 m/s, 187° | 186 W/m² | - |
| 1778014755 | 11.11° C | 41% | 1009 hPa | 0 mm | 0.89 m/s, 183° | 208 W/m² | - |
| 1778014455 | 11.67° C | 41% | 1009 hPa | 0 mm | 0.89 m/s, 176° | 228 W/m² | - |
| 1778014153 | 11.67° C | 42% | 1009.1 hPa | 0 mm | 0.89 m/s, 195° | 238 W/m² | - |
| 1778013855 | 11.67° C | 42% | 1009 hPa | 0 mm | 0.89 m/s, 328° | 257 W/m² | - |
| 1778013555 | 11.67° C | 42% | 1009 hPa | 0 mm | 0.89 m/s, 186° | 253 W/m² | - |
| 1778013256 | 11.67° C | 40% | 1009 hPa | 0 mm | 1.34 m/s, 195° | 267 W/m² | - |
| 1778012953 | 11.67° C | 42% | 1009.1 hPa | 0 mm | 0.89 m/s, 185° | 303 W/m² | - |
| 1778012653 | 12.22° C | 40% | 1009.2 hPa | 0 mm | 1.79 m/s, 193° | 388 W/m² | - |
| 1778012353 | 12.22° C | 42% | 1009.3 hPa | 0 mm | 0.89 m/s, 4° | 502 W/m² | - |
| 1778012053 | 11.67° C | 44% | 1009.4 hPa | 0 mm | 0.89 m/s, 191° | 571 W/m² | - |
| 1778011753 | 11.67° C | 44% | 1009.3 hPa | 0 mm | 0.89 m/s, 156° | 565 W/m² | - |
| 1778011454 | 11.67° C | 41% | 1009.3 hPa | 0 mm | 0.45 m/s, 144° | 339 W/m² | - |
| 1778011156 | 11.67° C | 41% | 1009.4 hPa | 0 mm | 0.89 m/s, 199° | 353 W/m² | - |
| 1778010856 | 11.67° C | 42% | 1009.4 hPa | 0 mm | 1.34 m/s, 183° | 344 W/m² | - |
* Rain latest hour (hover to see other rain measurements)
** Current wind speed in m/s (hover to see current wind gust speed)